createdAt,value
2023-09-17T07:41:47.567Z,430.27
2023-09-17T07:44:56.197Z,663.95
2023-09-17T07:48:05.359Z,839.58
2023-09-17T07:51:13.485Z,894.72
2023-09-17T07:54:21.626Z,980.92
2023-09-17T07:57:30.790Z,949.45
2023-09-17T08:00:38.971Z,945.63
2023-09-17T08:03:47.527Z,970.20
2023-09-17T08:06:56.116Z,675.53
2023-09-17T08:10:04.711Z,549.63
2023-09-17T08:13:14.983Z,5.85
2023-09-17T08:16:25.030Z,242.93
2023-09-17T08:19:33.252Z,19.63
2023-09-17T08:22:42.147Z,18.92
2023-09-17T08:25:51.957Z,5.43
2023-09-17T08:29:02.878Z,6.82
2023-09-17T08:32:12.335Z,8.07
2023-09-17T08:35:20.385Z,7.72
2023-09-17T08:38:28.118Z,8.27
2023-09-17T08:41:36.968Z,8.02
2023-09-17T08:44:46.587Z,5.20
2023-09-17T08:47:54.744Z,5.97
2023-09-17T08:51:02.683Z,5.78
2023-09-17T08:54:12.313Z,3.55
2023-09-17T08:57:22.020Z,7.22
2023-09-17T09:00:31.371Z,5.97
2023-09-17T09:03:39.595Z,4.88
2023-09-17T09:06:47.671Z,4.28
2023-09-17T09:09:56.106Z,5.20
2023-09-17T09:13:04.519Z,5.40
2023-09-17T09:16:14.018Z,4.63
2023-09-17T09:19:21.999Z,5.55
2023-09-17T09:22:30.151Z,6.85
2023-09-17T09:25:38.450Z,4.00
2023-09-17T09:28:46.865Z,5.40
2023-09-17T09:31:56.238Z,5.95
2023-09-17T09:35:04.200Z,5.93
2023-09-17T09:38:12.960Z,6.15
2023-09-17T09:41:20.905Z,5.50
2023-09-17T09:44:28.583Z,6.30
2023-09-17T09:47:39.777Z,7.20
2023-09-17T09:50:49.193Z,4.95
2023-09-17T09:53:57.952Z,7.55
2023-09-17T09:57:07.028Z,4.03
2023-09-17T10:00:17.912Z,3.63
2023-09-17T10:03:28.596Z,3.50
2023-09-17T10:06:37.551Z,3.92
2023-09-17T10:09:45.251Z,8.60
2023-09-17T10:12:54.418Z,590.67
2023-09-17T10:16:03.146Z,906.65
2023-09-17T10:19:13.130Z,938.53
2023-09-17T10:22:21.162Z,944.58
2023-09-17T10:25:29.698Z,617.03
2023-09-17T10:28:38.167Z,11.10
2023-09-17T10:31:46.575Z,11.30
2023-09-17T10:34:58.283Z,78.40
2023-09-17T10:38:06.912Z,151.80
2023-09-17T10:41:15.307Z,13.85
2023-09-17T10:44:24.779Z,11.20
2023-09-17T10:47:32.796Z,9.27
2023-09-17T10:50:42.268Z,9.50
2023-09-17T10:53:50.801Z,8.48
2023-09-17T10:56:59.144Z,8.15
2023-09-17T11:00:12.602Z,9.18
2023-09-17T11:03:22.334Z,6.53
2023-09-17T11:06:32.971Z,6.72
2023-09-17T11:09:41.198Z,10.52
2023-09-17T11:12:49.503Z,10.15
2023-09-17T11:15:57.615Z,8.15
2023-09-17T11:19:06.857Z,9.73
2023-09-17T11:22:16.025Z,11.98
2023-09-17T11:25:36.949Z,7.95
2023-09-17T11:28:45.245Z,9.45
2023-09-17T11:32:04.485Z,5.93
2023-09-17T11:35:13.187Z,8.73
2023-09-17T11:38:25.729Z,10.05
2023-09-17T11:41:42.716Z,7.22
2023-09-17T11:44:53.499Z,12.30
2023-09-17T11:48:02.036Z,7.47
2023-09-17T11:51:21.870Z,8.52
2023-09-17T11:54:35.318Z,11.00
2023-09-17T11:57:43.580Z,7.28
2023-09-17T12:00:51.917Z,7.13
2023-09-17T12:04:00.072Z,9.93
2023-09-17T12:07:10.090Z,7.13
2023-09-17T12:10:21.252Z,9.32
2023-09-17T12:13:31.574Z,7.35
2023-09-17T12:16:39.924Z,8.25
2023-09-17T12:20:02.025Z,7.75
2023-09-17T12:23:38.811Z,12.13
2023-09-17T12:27:20.757Z,8.00
2023-09-17T12:30:30.616Z,8.95
2023-09-17T12:33:39.691Z,5.60
2023-09-17T12:36:47.601Z,7.30
2023-09-17T12:39:55.894Z,5.80
2023-09-17T12:43:06.880Z,6.65
2023-09-17T12:46:14.894Z,5.30
2023-09-17T12:49:24.040Z,7.10
2023-09-17T12:52:32.128Z,5.57
2023-09-17T12:55:40.278Z,4.32
2023-09-17T12:58:52.355Z,5.10
2023-09-17T13:02:01.351Z,6.23
2023-09-17T13:05:19.417Z,6.78
2023-09-17T13:08:28.412Z,5.35
2023-09-17T13:11:36.484Z,8.50
2023-09-17T13:14:45.913Z,6.03
2023-09-17T13:17:54.061Z,7.57
2023-09-17T13:21:02.221Z,6.50
2023-09-17T13:24:11.373Z,7.28
2023-09-17T13:27:19.694Z,8.32
2023-09-17T13:30:29.052Z,12.48
2023-09-17T13:33:38.809Z,5.22
2023-09-17T13:36:47.073Z,15.60
2023-09-17T13:39:55.129Z,7.88
2023-09-17T13:43:03.313Z,11.43
2023-09-17T13:46:16.795Z,7.07
2023-09-17T13:49:25.011Z,22.00
2023-09-17T13:52:32.902Z,24.02
2023-09-17T13:55:41.212Z,18.90
2023-09-17T13:58:49.528Z,40.35
2023-09-17T14:01:59.334Z,23.85
2023-09-17T14:05:07.803Z,22.25
2023-09-17T14:08:15.810Z,27.05
2023-09-17T14:11:25.329Z,36.17
2023-09-17T14:14:33.504Z,8.15
2023-09-17T14:17:42.970Z,16.90
2023-09-17T14:20:51.172Z,24.35
2023-09-17T14:23:59.325Z,29.33
2023-09-17T14:27:07.184Z,159.00
2023-09-17T14:30:22.491Z,467.98
2023-09-17T14:33:31.674Z,184.35
2023-09-17T14:36:39.609Z,245.10
2023-09-17T14:39:47.824Z,1000.53
2023-09-17T14:42:56.094Z,476.38
2023-09-17T14:46:04.036Z,175.70
2023-09-17T14:49:13.633Z,211.90
2023-09-17T14:52:21.893Z,491.40
2023-09-17T14:55:30.080Z,203.60
2023-09-17T14:58:38.421Z,896.65
2023-09-17T15:04:58.993Z,51.25
2023-09-17T15:08:07.290Z,319.67
2023-09-17T15:11:15.388Z,408.42
2023-09-17T15:14:23.436Z,112.38
2023-09-17T15:17:31.567Z,169.98
2023-09-17T15:20:41.077Z,37.28
2023-09-17T15:23:48.847Z,30.38
2023-09-17T15:26:56.828Z,15.77
2023-09-17T15:30:05.685Z,7.82
2023-09-17T15:33:13.866Z,15.32
2023-09-17T15:36:23.852Z,333.65
2023-09-17T15:39:32.048Z,1044.18
2023-09-17T15:42:40.170Z,1049.45
2023-09-17T15:45:48.332Z,969.35
2023-09-17T15:48:56.542Z,159.77
2023-09-17T15:52:06.102Z,301.63
2023-09-17T15:55:14.568Z,19.35
2023-09-17T15:58:22.481Z,5.20
2023-09-17T16:01:30.718Z,5.80
2023-09-17T16:04:38.655Z,5.07
2023-09-17T16:07:51.528Z,3.90
2023-09-17T16:10:59.671Z,128.93
2023-09-17T16:14:07.607Z,111.03
2023-09-17T16:17:15.558Z,50.67
2023-09-17T16:20:23.724Z,6.22
2023-09-17T16:23:33.202Z,5.72
2023-09-17T16:26:41.300Z,5.70
2023-09-17T16:29:49.532Z,7.55
2023-09-17T16:32:57.630Z,190.25
2023-09-17T16:36:05.628Z,3.95
2023-09-17T16:39:15.012Z,3.40
2023-09-17T16:42:22.762Z,3.80
2023-09-17T16:45:30.867Z,3.85
2023-09-17T16:48:39.034Z,6.55
2023-09-17T16:51:47.817Z,3.97
2023-09-17T16:54:57.121Z,4.97
2023-09-17T16:58:05.094Z,3.65
2023-09-17T17:01:13.371Z,3.78
2023-09-17T17:04:21.458Z,3.78
2023-09-17T17:07:30.654Z,4.47
2023-09-17T17:10:40.561Z,4.47
2023-09-17T17:13:48.665Z,3.80
2023-09-17T17:16:58.374Z,3.63
2023-09-17T17:20:08.271Z,4.65
2023-09-17T17:23:17.719Z,3.63
2023-09-17T17:26:27.547Z,3.25
2023-09-17T17:29:35.797Z,3.50
2023-09-17T17:32:46.133Z,4.15
2023-09-17T17:35:54.323Z,4.65
2023-09-17T17:39:02.307Z,4.57
2023-09-17T17:42:11.838Z,4.18
2023-09-17T17:45:21.505Z,4.53
2023-09-17T17:48:29.804Z,3.45
2023-09-17T17:51:37.940Z,3.55
2023-09-17T17:54:45.962Z,3.83
2023-09-17T17:57:55.274Z,4.32
2023-09-17T18:01:04.140Z,171.63
2023-09-17T18:04:12.022Z,612.05
2023-09-17T18:07:19.990Z,727.40
2023-09-17T18:10:28.032Z,778.47
2023-09-17T18:13:37.499Z,234.82
2023-09-17T18:16:46.017Z,624.13
2023-09-17T18:19:54.152Z,374.05
2023-09-17T18:23:02.434Z,5.57
2023-09-17T18:26:10.594Z,3.35
2023-09-17T18:29:22.200Z,3.85
2023-09-17T18:32:30.282Z,4.82
2023-09-17T18:35:38.569Z,5.82
2023-09-17T18:38:46.652Z,3.33
2023-09-17T18:41:54.716Z,3.00
2023-09-17T18:45:04.744Z,5.97
2023-09-17T18:48:13.565Z,18.13
2023-09-17T18:51:21.740Z,9.98
2023-09-17T18:54:29.669Z,4.57
2023-09-17T18:57:40.654Z,4.88
2023-09-17T19:00:50.098Z,3.67
2023-09-17T19:03:58.395Z,3.83
2023-09-17T19:07:06.296Z,4.70
2023-09-17T19:10:16.188Z,4.30
2023-09-17T19:13:24.463Z,5.28
2023-09-17T19:16:33.893Z,6.28
2023-09-17T19:19:41.984Z,4.30
2023-09-17T19:22:50.029Z,3.20
2023-09-17T19:25:58.131Z,4.13
2023-09-17T19:29:06.481Z,3.85
2023-09-17T19:32:15.899Z,5.80
2023-09-17T19:35:24.119Z,3.45
2023-09-17T19:38:32.455Z,5.93
2023-09-17T19:41:40.867Z,5.65
2023-09-17T19:44:49.475Z,3.67
2023-09-17T19:47:59.893Z,4.82
2023-09-17T19:51:10.116Z,6.25
2023-09-17T19:54:18.366Z,7.88
2023-09-17T19:57:26.638Z,8.57
2023-09-17T20:00:34.973Z,8.93
2023-09-17T20:03:44.415Z,7.55
2023-09-17T20:06:55.719Z,4.95
2023-09-17T20:10:05.313Z,16.70
2023-09-17T20:13:15.145Z,13.18
2023-09-17T20:16:23.197Z,3.33
2023-09-17T20:19:36.187Z,6.97
2023-09-17T20:22:45.352Z,3.78
2023-09-17T20:25:53.574Z,6.28
2023-09-17T20:29:01.577Z,4.78
2023-09-17T20:32:09.503Z,4.78
2023-09-17T20:35:18.905Z,4.32
2023-09-17T20:38:26.900Z,8.05
2023-09-17T20:41:34.754Z,6.18
2023-09-17T20:44:42.792Z,6.80
2023-09-17T20:47:50.924Z,4.75
2023-09-17T20:51:02.150Z,6.88
2023-09-17T20:54:11.566Z,4.75
2023-09-17T20:57:21.342Z,5.57
2023-09-17T21:00:29.287Z,4.03
2023-09-17T21:03:37.246Z,5.65
2023-09-17T21:06:46.760Z,5.32
2023-09-17T21:09:55.403Z,6.18
2023-09-17T21:13:03.706Z,4.65
2023-09-17T21:16:13.145Z,4.68
2023-09-17T21:19:22.581Z,4.20
2023-09-17T21:22:32.290Z,4.05
2023-09-17T21:25:40.163Z,5.18
2023-09-17T21:28:48.115Z,4.85
2023-09-17T21:31:56.583Z,7.32
2023-09-17T21:35:06.946Z,4.35
2023-09-17T21:38:16.405Z,5.93
2023-09-17T21:41:24.710Z,3.90
2023-09-17T21:44:32.696Z,5.07
2023-09-17T21:47:40.928Z,4.65
2023-09-17T21:50:48.924Z,4.25
2023-09-17T21:53:58.452Z,3.42
2023-09-17T21:57:10.377Z,5.05
2023-09-17T22:00:24.628Z,6.20
2023-09-17T22:03:33.263Z,5.47
2023-09-17T22:06:41.702Z,4.90
2023-09-17T22:09:50.851Z,4.95
2023-09-17T22:12:59.059Z,5.50
2023-09-17T22:16:07.305Z,5.32
2023-09-17T22:19:15.413Z,4.32
2023-09-17T22:22:23.536Z,4.20
2023-09-17T22:25:33.066Z,3.83
2023-09-17T22:28:41.525Z,5.03
2023-09-17T22:31:49.716Z,15.35
2023-09-17T22:34:57.857Z,29.77
2023-09-17T22:38:05.773Z,22.40
2023-09-17T22:41:21.376Z,19.40
2023-09-17T22:44:29.759Z,15.65
2023-09-17T22:47:37.764Z,9.10
2023-09-17T22:50:45.835Z,16.33
2023-09-17T22:53:54.072Z,17.02
2023-09-17T22:57:03.526Z,20.77
2023-09-17T23:00:12.435Z,3.90
2023-09-17T23:03:20.357Z,4.35
2023-09-17T23:06:29.009Z,5.10
2023-09-17T23:09:37.006Z,5.45
2023-09-17T23:12:47.081Z,4.72
2023-09-17T23:15:56.797Z,3.30
2023-09-17T23:19:07.324Z,3.53
2023-09-17T23:22:15.516Z,6.57
2023-09-17T23:25:24.280Z,4.15
2023-09-17T23:28:34.060Z,3.97
2023-09-17T23:31:42.390Z,6.30
2023-09-17T23:34:50.653Z,5.80
2023-09-17T23:37:58.856Z,5.22
2023-09-17T23:41:09.452Z,5.68
2023-09-17T23:44:19.098Z,4.07
2023-09-17T23:47:27.170Z,4.45
2023-09-17T23:50:35.998Z,4.43
2023-09-17T23:53:43.910Z,3.85
2023-09-17T23:56:52.223Z,6.03
